createdAt,value
2022-12-05T00:00:18.919Z,99710.02
2022-12-05T00:03:06.532Z,99698.14
2022-12-05T00:05:34.233Z,99700.38
2022-12-05T00:08:02.082Z,99698.09
2022-12-05T00:10:29.836Z,99707.56
2022-12-05T00:12:57.523Z,99710.77
2022-12-05T00:15:25.313Z,99704.35
2022-12-05T00:17:53.052Z,99707.67
2022-12-05T00:20:21.141Z,99704.80
2022-12-05T00:22:48.908Z,99702.89
2022-12-05T00:25:16.578Z,99704.90
2022-12-05T00:27:44.389Z,99700.45
2022-12-05T00:30:12.371Z,99699.46
2022-12-05T00:32:40.097Z,99690.58
2022-12-05T00:35:08.345Z,99689.59
2022-12-05T00:37:36.439Z,99686.73
2022-12-05T00:40:05.327Z,99680.77
2022-12-05T00:42:33.311Z,99686.48
2022-12-05T00:45:00.992Z,99689.88
2022-12-05T00:47:28.735Z,99691.40
2022-12-05T00:49:56.951Z,99692.65
2022-12-05T00:52:24.903Z,99694.20
2022-12-05T00:54:52.611Z,99690.61
2022-12-05T00:57:20.495Z,99699.23
2022-12-05T00:59:48.519Z,99689.34
2022-12-05T01:02:16.490Z,99683.48
2022-12-05T01:04:44.311Z,99678.45
2022-12-05T01:07:12.348Z,99677.15
2022-12-05T01:09:40.066Z,99675.29
2022-12-05T01:12:08.028Z,99673.10
2022-12-05T01:14:35.842Z,99679.48
2022-12-05T01:17:03.841Z,99673.75
2022-12-05T01:19:32.861Z,99673.68
2022-12-05T01:22:01.137Z,99663.77
2022-12-05T01:24:29.631Z,99667.23
2022-12-05T01:27:00.551Z,99668.36
2022-12-05T01:29:28.275Z,99673.98
2022-12-05T01:31:56.571Z,99674.94
2022-12-05T01:34:25.686Z,99672.20
2022-12-05T01:36:53.579Z,99668.14
2022-12-05T01:39:21.398Z,99666.48
2022-12-05T01:41:50.598Z,99663.30
2022-12-05T01:44:24.344Z,99660.03
2022-12-05T01:46:53.114Z,99664.58
2022-12-05T01:49:31.500Z,99662.73
2022-12-05T01:52:03.721Z,99669.48
2022-12-05T01:54:31.779Z,99668.76
2022-12-05T01:57:11.176Z,99672.30
2022-12-05T01:59:48.846Z,99669.84
2022-12-05T02:02:16.702Z,99676.08
2022-12-05T02:04:57.202Z,99668.97
2022-12-05T02:07:25.192Z,99666.75
2022-12-05T02:09:52.955Z,99663.92
2022-12-05T02:12:21.337Z,99660.73
2022-12-05T02:15:06.589Z,99658.60
2022-12-05T02:17:46.460Z,99654.07
2022-12-05T02:20:55.739Z,99652.70
2022-12-05T02:23:33.315Z,99646.04
2022-12-05T02:26:17.093Z,99642.91
2022-12-05T02:29:00.659Z,99642.27
2022-12-05T02:31:40.580Z,99644.56
2022-12-05T02:34:27.980Z,99649.68
2022-12-05T02:37:03.826Z,99651.84
2022-12-05T02:39:59.624Z,99645.13
2022-12-05T02:42:31.851Z,99643.34
2022-12-05T02:45:02.435Z,99638.04
2022-12-05T02:47:33.675Z,99640.05
2022-12-05T02:50:01.481Z,99636.55
2022-12-05T02:52:30.404Z,99623.54
2022-12-05T02:54:58.446Z,99619.13
2022-12-05T02:57:26.350Z,99618.88
2022-12-05T02:59:54.052Z,99612.30
2022-12-05T03:02:24.650Z,99615.30
2022-12-05T03:04:52.941Z,99614.23
2022-12-05T03:07:22.360Z,99614.39
2022-12-05T03:09:56.242Z,99604.96
2022-12-05T03:12:31.279Z,99608.31
2022-12-05T03:15:16.190Z,99608.57
2022-12-05T03:18:27.592Z,99605.19
2022-12-05T03:21:21.347Z,99612.10
2022-12-05T03:24:01.473Z,99610.42
2022-12-05T03:26:55.866Z,99605.79
2022-12-05T03:29:34.023Z,99605.13
2022-12-05T03:32:32.411Z,99603.09
2022-12-05T03:35:19.232Z,99599.23
2022-12-05T03:37:58.345Z,99601.95
2022-12-05T03:40:41.762Z,99602.64
2022-12-05T03:43:28.247Z,99602.28
2022-12-05T03:46:05.115Z,99602.99
2022-12-05T03:48:42.401Z,99606.90
2022-12-05T03:51:11.756Z,99612.02
2022-12-05T03:53:51.719Z,99612.77
2022-12-05T03:56:25.237Z,99619.11
2022-12-05T03:59:03.317Z,99619.41
2022-12-05T04:01:32.150Z,99620.79
2022-12-05T04:04:12.786Z,99623.14
2022-12-05T04:06:40.983Z,99625.56
2022-12-05T04:09:17.521Z,99631.97
2022-12-05T04:11:49.555Z,99630.33
2022-12-05T04:14:22.515Z,99638.86
2022-12-05T04:17:04.836Z,99641.33
2022-12-05T04:20:06.133Z,99644.45
2022-12-05T04:22:34.475Z,99645.36
2022-12-05T04:25:23.564Z,99643.11
2022-12-05T04:27:59.723Z,99642.02
2022-12-05T04:30:36.093Z,99642.33
2022-12-05T04:33:22.146Z,99639.00
2022-12-05T04:35:56.989Z,99634.45
2022-12-05T04:38:30.083Z,99637.73
2022-12-05T04:41:01.987Z,99637.48
2022-12-05T04:43:33.987Z,99640.27
2022-12-05T04:46:04.445Z,99634.42
2022-12-05T04:48:32.921Z,99633.79
2022-12-05T04:51:01.732Z,99637.61
2022-12-05T04:53:30.076Z,99637.14
2022-12-05T04:55:59.648Z,99638.01
2022-12-05T04:58:28.272Z,99634.16
2022-12-05T05:00:59.768Z,99640.10
2022-12-05T05:03:31.818Z,99626.33
2022-12-05T05:05:59.762Z,99636.14
2022-12-05T05:08:29.044Z,99633.16
2022-12-05T05:11:13.543Z,99633.11
2022-12-05T05:13:41.395Z,99637.25
2022-12-05T05:16:18.285Z,99630.40
2022-12-05T05:18:47.842Z,99630.30
2022-12-05T05:21:37.173Z,99632.55
2022-12-05T05:24:06.158Z,99631.94
2022-12-05T05:26:37.390Z,99630.00
2022-12-05T05:29:05.393Z,99632.48
2022-12-05T05:31:33.290Z,99632.17
2022-12-05T05:34:05.993Z,99631.47
2022-12-05T05:36:38.406Z,99633.17
2022-12-05T05:39:09.605Z,99628.19
2022-12-05T05:41:37.334Z,99622.44
2022-12-05T05:44:05.631Z,99618.02
2022-12-05T05:46:35.695Z,99614.20
2022-12-05T05:49:04.370Z,99610.34
2022-12-05T05:51:32.677Z,99621.03
2022-12-05T05:54:00.847Z,99617.73
2022-12-05T05:56:29.652Z,99614.42
2022-12-05T05:59:00.038Z,99618.12
2022-12-05T06:01:28.495Z,99620.23
2022-12-05T06:03:57.913Z,99621.98
2022-12-05T06:06:26.496Z,99621.38
2022-12-05T06:08:55.119Z,99619.12
2022-12-05T06:11:26.572Z,99617.59
2022-12-05T06:13:56.071Z,99622.42
2022-12-05T06:16:24.157Z,99619.55
2022-12-05T06:18:52.533Z,99617.87
2022-12-05T06:21:21.471Z,99613.65
2022-12-05T06:23:50.244Z,99608.50
2022-12-05T06:26:19.567Z,99602.43
2022-12-05T06:28:47.715Z,99602.62
2022-12-05T06:31:19.118Z,99599.31
2022-12-05T06:33:47.068Z,99601.52
2022-12-05T06:36:18.680Z,99601.98
2022-12-05T06:38:46.385Z,99595.70
2022-12-05T06:41:16.374Z,99597.77
2022-12-05T06:43:44.298Z,99601.00
2022-12-05T06:46:14.257Z,99600.06
2022-12-05T06:48:42.294Z,99602.23
2022-12-05T06:51:11.496Z,99601.56
2022-12-05T06:53:39.822Z,99608.01
2022-12-05T06:56:16.812Z,99609.73
2022-12-05T06:58:47.028Z,99612.83
2022-12-05T07:01:36.191Z,99599.19
2022-12-05T07:04:06.034Z,99602.39
2022-12-05T07:06:35.463Z,99599.11
2022-12-05T07:09:04.455Z,99594.14
2022-12-05T07:11:32.712Z,99594.88
2022-12-05T07:14:00.755Z,99594.88
2022-12-05T07:16:28.784Z,99603.56
2022-12-05T07:18:57.278Z,99601.13
2022-12-05T07:21:25.032Z,99598.23
2022-12-05T07:23:52.811Z,99605.68
2022-12-05T07:26:22.996Z,99606.46
2022-12-05T07:28:51.874Z,99610.39
2022-12-05T07:31:22.706Z,99611.27
2022-12-05T07:33:50.767Z,99612.45
2022-12-05T07:36:20.394Z,99609.25
2022-12-05T07:38:48.494Z,99610.98
2022-12-05T07:41:27.526Z,99609.80
2022-12-05T07:43:58.213Z,99602.52
2022-12-05T07:46:27.434Z,99598.05
2022-12-05T07:48:55.672Z,99591.56
2022-12-05T07:51:23.953Z,99591.64
2022-12-05T07:53:51.759Z,99580.88
2022-12-05T07:56:19.967Z,99582.38
2022-12-05T07:58:49.896Z,99583.67
2022-12-05T08:01:23.246Z,99592.16
2022-12-05T08:03:53.662Z,99593.52
2022-12-05T08:06:24.176Z,99599.71
2022-12-05T08:08:52.212Z,99598.30
2022-12-05T08:11:28.098Z,99600.56
2022-12-05T08:13:56.821Z,99597.36
2022-12-05T08:16:27.718Z,99589.73
2022-12-05T08:18:56.457Z,99591.98
2022-12-05T08:21:25.315Z,99590.98
2022-12-05T08:23:53.873Z,99587.66
2022-12-05T08:26:27.074Z,99586.19
2022-12-05T08:28:58.891Z,99578.05
2022-12-05T08:31:32.332Z,99577.80
2022-12-05T08:34:00.574Z,99588.36
2022-12-05T08:36:29.979Z,99585.54
2022-12-05T08:39:02.166Z,99587.18
2022-12-05T08:41:31.188Z,99595.36
2022-12-05T08:44:03.380Z,99592.21
2022-12-05T08:46:33.541Z,99585.00
2022-12-05T08:49:01.958Z,99582.91
2022-12-05T08:51:29.870Z,99583.41
2022-12-05T08:53:57.907Z,99591.14
2022-12-05T08:56:27.458Z,99596.91
2022-12-05T08:59:02.873Z,99588.31
2022-12-05T09:01:36.952Z,99586.27
2022-12-05T09:04:05.840Z,99587.42
2022-12-05T09:06:34.704Z,99585.73
2022-12-05T09:09:06.354Z,99583.59
2022-12-05T09:11:37.404Z,99586.20
2022-12-05T09:14:05.461Z,99588.97
2022-12-05T09:16:38.126Z,99587.23
2022-12-05T09:19:14.009Z,99588.92
2022-12-05T09:21:42.332Z,99589.92
2022-12-05T09:24:12.217Z,99586.64
2022-12-05T09:26:40.868Z,99583.27
2022-12-05T09:29:15.851Z,99578.95
2022-12-05T09:31:47.558Z,99572.15
2022-12-05T09:34:15.773Z,99568.80
2022-12-05T09:36:44.057Z,99567.52
2022-12-05T09:39:11.887Z,99569.63
2022-12-05T09:42:08.151Z,99567.05
2022-12-05T09:45:10.602Z,99567.41
2022-12-05T09:47:43.411Z,99561.02
2022-12-05T09:50:21.870Z,99555.83
2022-12-05T09:53:03.825Z,99554.24
2022-12-05T09:55:51.914Z,99558.23
2022-12-05T09:58:28.171Z,99555.89
2022-12-05T10:01:42.349Z,99557.21
2022-12-05T10:04:19.729Z,99555.94
2022-12-05T10:07:12.768Z,99551.89
2022-12-05T10:09:53.832Z,99548.75
2022-12-05T10:12:44.062Z,99547.09
2022-12-05T10:15:32.717Z,99541.34
2022-12-05T10:18:11.293Z,99541.74
2022-12-05T10:20:43.718Z,99534.54
2022-12-05T10:23:34.607Z,99534.77
2022-12-05T10:26:07.657Z,99540.41
2022-12-05T10:28:46.997Z,99538.96
2022-12-05T10:31:17.415Z,99534.70
2022-12-05T10:33:49.887Z,99529.91
2022-12-05T10:36:20.378Z,99527.86
2022-12-05T10:38:50.237Z,99524.33
2022-12-05T10:41:18.057Z,99524.70
2022-12-05T10:43:46.358Z,99526.81
2022-12-05T10:46:17.433Z,99526.48
2022-12-05T10:48:45.699Z,99526.29
2022-12-05T10:51:17.055Z,99520.45
2022-12-05T10:53:51.117Z,99518.86
2022-12-05T10:56:38.751Z,99512.94
2022-12-05T10:59:08.566Z,99515.14
2022-12-05T11:01:38.764Z,99513.45
2022-12-05T11:04:18.133Z,99512.82
2022-12-05T11:06:51.537Z,99509.27
2022-12-05T11:09:31.225Z,99511.36
2022-12-05T11:12:26.002Z,99504.81
2022-12-05T11:15:06.247Z,99498.05
2022-12-05T11:17:36.978Z,99497.14
2022-12-05T11:20:25.127Z,99495.97
2022-12-05T11:22:56.330Z,99491.84
2022-12-05T11:25:33.000Z,99497.65
2022-12-05T11:28:32.372Z,99494.91
2022-12-05T11:31:14.513Z,99493.25
2022-12-05T11:33:42.878Z,99492.23
2022-12-05T11:36:19.159Z,99496.04
2022-12-05T11:38:46.991Z,99494.59
2022-12-05T11:41:18.944Z,99494.86
2022-12-05T11:43:53.792Z,99504.64
2022-12-05T11:46:31.100Z,99493.83
2022-12-05T11:48:58.856Z,99489.47
2022-12-05T11:51:56.074Z,99487.76
2022-12-05T11:55:06.478Z,99491.69
2022-12-05T11:57:37.131Z,99489.16
2022-12-05T12:00:19.633Z,99487.05
2022-12-05T12:02:56.177Z,99481.39
2022-12-05T12:05:57.503Z,99477.48
2022-12-05T12:08:27.983Z,99473.80
2022-12-05T12:11:04.611Z,99469.83
2022-12-05T12:14:17.978Z,99462.54
2022-12-05T12:17:16.940Z,99456.50
2022-12-05T12:20:11.153Z,99458.38
2022-12-05T12:23:01.041Z,99455.63
2022-12-05T12:25:44.106Z,99450.20
2022-12-05T12:28:30.188Z,99445.20
2022-12-05T12:31:12.984Z,99441.60
2022-12-05T12:33:56.848Z,99438.38
2022-12-05T12:36:33.078Z,99430.61
2022-12-05T12:39:15.669Z,99426.82
2022-12-05T12:41:57.148Z,99423.45
2022-12-05T12:45:03.598Z,99417.91
2022-12-05T12:48:13.096Z,99423.67
2022-12-05T12:50:44.800Z,99419.46
2022-12-05T12:53:31.518Z,99426.86
2022-12-05T12:56:21.301Z,99430.36
2022-12-05T12:59:07.940Z,99429.50
2022-12-05T13:01:56.372Z,99431.33
2022-12-05T13:04:33.348Z,99430.14
2022-12-05T13:07:05.792Z,99427.48
2022-12-05T13:09:53.388Z,99426.77
2022-12-05T13:12:27.742Z,99430.24
2022-12-05T13:15:17.646Z,99431.30
2022-12-05T13:17:47.532Z,99432.93
2022-12-05T13:20:21.464Z,99433.61
2022-12-05T13:22:50.825Z,99434.63
2022-12-05T13:25:21.597Z,99433.67
2022-12-05T13:27:55.644Z,99432.66
2022-12-05T13:30:23.898Z,99427.23
2022-12-05T13:32:56.451Z,99422.20
2022-12-05T13:35:51.946Z,99424.05
2022-12-05T13:38:46.911Z,99416.88
2022-12-05T13:41:33.642Z,99421.02
2022-12-05T13:44:06.709Z,99418.17
2022-12-05T13:46:36.659Z,99417.74
2022-12-05T13:49:43.476Z,99414.61
2022-12-05T13:52:15.707Z,99419.77
2022-12-05T13:54:56.440Z,99417.08
2022-12-05T13:57:39.353Z,99414.84
2022-12-05T14:00:23.221Z,99422.09
2022-12-05T14:02:53.544Z,99441.38
2022-12-05T14:05:21.218Z,99422.34
2022-12-05T14:07:51.622Z,99423.60
2022-12-05T14:10:24.238Z,99419.25
2022-12-05T14:12:57.943Z,99422.52
2022-12-05T14:15:28.837Z,99422.95
2022-12-05T14:18:01.742Z,99419.89
2022-12-05T14:20:43.193Z,99417.48
2022-12-05T14:23:41.184Z,99426.55
2022-12-05T14:26:37.932Z,99416.94
2022-12-05T14:29:49.318Z,99419.48
2022-12-05T14:32:28.343Z,99423.52
2022-12-05T14:35:12.279Z,99422.48
2022-12-05T14:37:51.450Z,99421.48
2022-12-05T14:40:37.334Z,99422.49
2022-12-05T14:43:06.958Z,99418.77
2022-12-05T14:45:38.957Z,99417.20
2022-12-05T14:48:12.811Z,99418.58
2022-12-05T14:50:48.650Z,99411.05
2022-12-05T14:53:22.059Z,99411.36
2022-12-05T14:56:04.378Z,99407.30
2022-12-05T14:59:05.407Z,99403.81
2022-12-05T15:01:41.663Z,99411.27
2022-12-05T15:04:12.426Z,99412.00
2022-12-05T15:06:56.190Z,99407.40
2022-12-05T15:09:37.460Z,99406.60
2022-12-05T15:12:36.994Z,99402.13
2022-12-05T15:15:42.404Z,99400.59
2022-12-05T15:18:35.246Z,99405.80
2022-12-05T15:21:03.248Z,99403.95
2022-12-05T15:23:43.950Z,99402.26
2022-12-05T15:26:46.191Z,99396.31
2022-12-05T15:29:21.009Z,99396.25
2022-12-05T15:31:50.619Z,99387.90
2022-12-05T15:34:20.945Z,99386.96
2022-12-05T15:36:52.472Z,99385.84
2022-12-05T15:39:25.620Z,99386.21
2022-12-05T15:41:54.046Z,99385.38
2022-12-05T15:44:27.569Z,99387.11
2022-12-05T15:46:56.681Z,99387.21
2022-12-05T15:49:26.683Z,99386.45
2022-12-05T15:52:07.198Z,99385.23
2022-12-05T15:54:35.900Z,99385.23
2022-12-05T15:57:12.644Z,99379.88
2022-12-05T15:59:45.261Z,99380.27
2022-12-05T16:02:40.024Z,99374.50
2022-12-05T16:05:36.302Z,99380.71
2022-12-05T16:08:06.106Z,99372.64
2022-12-05T16:10:34.791Z,99369.84
2022-12-05T16:13:05.447Z,99368.23
2022-12-05T16:15:33.511Z,99366.06
2022-12-05T16:18:03.491Z,99368.13
2022-12-05T16:20:36.897Z,99367.75
2022-12-05T16:23:19.674Z,99369.02
2022-12-05T16:25:47.363Z,99365.89
2022-12-05T16:28:17.410Z,99364.02
2022-12-05T16:31:00.386Z,99368.15
2022-12-05T16:33:29.835Z,99365.87
2022-12-05T16:36:08.346Z,99364.82
2022-12-05T16:38:36.836Z,99360.60
2022-12-05T16:41:06.102Z,99357.32
2022-12-05T16:43:34.113Z,99359.30
2022-12-05T16:46:11.327Z,99353.19
2022-12-05T16:48:40.629Z,99354.13
2022-12-05T16:51:18.733Z,99348.00
2022-12-05T16:53:49.322Z,99343.85
2022-12-05T16:56:21.356Z,99347.54
2022-12-05T16:58:49.354Z,99346.17
2022-12-05T17:01:23.813Z,99346.66
2022-12-05T17:03:55.657Z,99345.27
2022-12-05T17:06:25.027Z,99344.65
2022-12-05T17:08:54.098Z,99342.02
2022-12-05T17:11:26.904Z,99339.48
2022-12-05T17:13:56.209Z,99343.11
2022-12-05T17:16:24.785Z,99340.73
2022-12-05T17:18:53.044Z,99339.64
2022-12-05T17:21:23.489Z,99338.50
2022-12-05T17:23:52.221Z,99341.06
2022-12-05T17:26:21.214Z,99339.92
2022-12-05T17:28:49.522Z,99339.80
2022-12-05T17:31:22.645Z,99341.02
2022-12-05T17:33:51.965Z,99341.34
2022-12-05T17:36:22.676Z,99338.38
2022-12-05T17:38:50.623Z,99338.98
2022-12-05T17:41:23.511Z,99340.13
2022-12-05T17:43:51.645Z,99335.84
2022-12-05T17:46:21.965Z,99337.92
2022-12-05T17:48:50.948Z,99339.34
2022-12-05T17:51:20.081Z,99337.27
2022-12-05T17:53:47.927Z,99337.27
2022-12-05T17:56:16.115Z,99337.58
2022-12-05T17:58:44.013Z,99341.36
2022-12-05T18:01:18.353Z,99339.42
2022-12-05T18:03:46.988Z,99340.67
2022-12-05T18:06:15.325Z,99342.19
2022-12-05T18:08:45.011Z,99345.91
2022-12-05T18:11:14.564Z,99344.39
2022-12-05T18:13:42.443Z,99344.67
2022-12-05T18:16:11.268Z,99346.65
2022-12-05T18:18:39.529Z,99342.61
2022-12-05T18:21:09.887Z,99348.45
2022-12-05T18:23:39.141Z,99346.04
2022-12-05T18:26:09.584Z,99350.19
2022-12-05T18:28:38.564Z,99348.04
2022-12-05T18:31:12.256Z,99345.26
2022-12-05T18:33:40.320Z,99348.87
2022-12-05T18:36:13.951Z,99348.06
2022-12-05T18:38:43.455Z,99351.40
2022-12-05T18:41:11.415Z,99350.27
2022-12-05T18:43:40.167Z,99351.38
2022-12-05T18:46:08.204Z,99355.27
2022-12-05T18:48:42.630Z,99351.84
2022-12-05T18:51:18.852Z,99354.88
2022-12-05T18:53:52.385Z,99349.25
2022-12-05T18:56:24.678Z,99349.88
2022-12-05T18:58:58.533Z,99346.91
2022-12-05T19:01:27.819Z,99344.14
2022-12-05T19:03:57.576Z,99344.36
2022-12-05T19:06:27.942Z,99342.91
2022-12-05T19:08:58.055Z,99341.84
2022-12-05T19:11:26.556Z,99341.27
2022-12-05T19:13:59.481Z,99340.83
2022-12-05T19:16:29.255Z,99336.35
2022-12-05T19:19:02.292Z,99340.73
2022-12-05T19:21:31.649Z,99333.45
2022-12-05T19:24:01.651Z,99337.91
2022-12-05T19:26:29.785Z,99339.69
2022-12-05T19:28:57.967Z,99337.30
2022-12-05T19:31:27.758Z,99339.30
2022-12-05T19:33:58.664Z,99334.29
2022-12-05T19:36:29.410Z,99335.66
2022-12-05T19:38:57.754Z,99334.61
2022-12-05T19:41:27.753Z,99337.56
2022-12-05T19:43:58.895Z,99334.05
2022-12-05T19:46:29.778Z,99331.67
2022-12-05T19:48:59.496Z,99332.36
2022-12-05T19:51:27.488Z,99330.14
2022-12-05T19:53:55.297Z,99321.52
2022-12-05T19:56:24.619Z,99326.35
2022-12-05T19:58:53.861Z,99323.23
2022-12-05T20:01:30.280Z,99321.30
2022-12-05T20:04:00.330Z,99322.50
2022-12-05T20:06:47.660Z,99320.02
2022-12-05T20:09:17.656Z,99314.34
2022-12-05T20:11:53.954Z,99313.30
2022-12-05T20:14:24.534Z,99307.71
2022-12-05T20:16:52.749Z,99309.59
2022-12-05T20:19:20.665Z,99309.73
2022-12-05T20:21:48.639Z,99312.75
2022-12-05T20:24:16.400Z,99319.05
2022-12-05T20:26:45.012Z,99317.34
2022-12-05T20:29:12.869Z,99319.42
2022-12-05T20:31:42.441Z,99317.98
2022-12-05T20:34:13.440Z,99316.90
2022-12-05T20:36:42.043Z,99318.27
2022-12-05T20:39:15.712Z,99317.85
2022-12-05T20:41:44.053Z,99314.33
2022-12-05T20:44:15.247Z,99308.27
2022-12-05T20:46:43.756Z,99311.48
2022-12-05T20:49:14.642Z,99306.73
2022-12-05T20:51:44.275Z,99304.92
2022-12-05T20:54:13.218Z,99298.79
2022-12-05T20:56:41.344Z,99295.16
2022-12-05T20:59:11.683Z,99292.08
2022-12-05T21:01:39.962Z,99290.77
2022-12-05T21:04:08.847Z,99287.17
2022-12-05T21:06:40.373Z,99287.94
2022-12-05T21:09:18.452Z,99283.82
2022-12-05T21:11:46.303Z,99283.73
2022-12-05T21:14:14.119Z,99282.31
2022-12-05T21:16:42.013Z,99280.92
2022-12-05T21:19:10.138Z,99278.35
2022-12-05T21:21:38.164Z,99282.66
2022-12-05T21:24:06.764Z,99280.95
2022-12-05T21:26:34.895Z,99283.58
2022-12-05T21:29:03.793Z,99281.73
2022-12-05T21:31:34.249Z,99279.34
2022-12-05T21:34:05.234Z,99281.95
2022-12-05T21:36:35.022Z,99284.58
2022-12-05T21:39:03.583Z,99282.31
2022-12-05T21:41:31.673Z,99282.26
2022-12-05T21:44:00.479Z,99282.13
2022-12-05T21:46:28.412Z,99278.67
2022-12-05T21:48:56.562Z,99284.04
2022-12-05T21:51:24.490Z,99289.02
2022-12-05T21:53:52.318Z,99289.05
2022-12-05T21:56:25.461Z,99287.64
2022-12-05T21:58:56.366Z,99286.46
2022-12-05T22:01:29.081Z,99288.81
2022-12-05T22:04:01.447Z,99286.73
2022-12-05T22:06:33.669Z,99289.91
2022-12-05T22:09:01.974Z,99289.02
2022-12-05T22:11:29.977Z,99292.88
2022-12-05T22:13:57.703Z,99290.20
2022-12-05T22:16:32.189Z,99286.36
2022-12-05T22:19:01.468Z,99282.58
2022-12-05T22:21:29.757Z,99283.57
2022-12-05T22:23:57.483Z,99283.00
2022-12-05T22:26:26.201Z,99285.69
2022-12-05T22:28:55.867Z,99280.40
2022-12-05T22:31:24.322Z,99274.13
2022-12-05T22:33:52.304Z,99275.41
2022-12-05T22:36:20.371Z,99272.33
2022-12-05T22:38:48.737Z,99264.86
2022-12-05T22:41:22.434Z,99265.17
2022-12-05T22:43:54.547Z,99263.24
2022-12-05T22:46:23.760Z,99250.02
2022-12-05T22:48:51.914Z,99251.77
2022-12-05T22:51:21.394Z,99250.85
2022-12-05T22:53:53.276Z,99247.69
2022-12-05T22:56:22.784Z,99247.84
2022-12-05T22:58:55.141Z,99245.38
2022-12-05T23:01:25.184Z,99245.99
2022-12-05T23:04:01.487Z,99244.75
2022-12-05T23:06:30.976Z,99249.98
2022-12-05T23:08:59.683Z,99248.30
2022-12-05T23:11:29.938Z,99251.04
2022-12-05T23:14:02.401Z,99251.84
2022-12-05T23:16:33.026Z,99254.52
2022-12-05T23:19:03.796Z,99252.54
2022-12-05T23:21:34.831Z,99251.94
2022-12-05T23:24:05.166Z,99247.71
2022-12-05T23:26:36.052Z,99243.83
2022-12-05T23:29:04.628Z,99241.96
2022-12-05T23:31:32.719Z,99243.20
2022-12-05T23:34:03.502Z,99244.05
2022-12-05T23:36:34.045Z,99243.45
2022-12-05T23:39:02.294Z,99239.90
2022-12-05T23:41:30.997Z,99232.61
2022-12-05T23:43:58.856Z,99227.08
2022-12-05T23:46:27.946Z,99225.66
2022-12-05T23:48:56.181Z,99219.39
2022-12-05T23:51:28.821Z,99217.12
2022-12-05T23:53:58.955Z,99215.58
2022-12-05T23:56:32.490Z,99211.02
2022-12-05T23:59:01.948Z,99205.88
